createdAt,value
2023-05-28T00:00:07.643Z,15.14
2023-05-28T00:02:36.190Z,15.06
2023-05-28T00:05:03.888Z,15.07
2023-05-28T00:07:31.673Z,14.89
2023-05-28T00:09:58.870Z,14.87
2023-05-28T00:12:25.895Z,14.78
2023-05-28T00:14:52.812Z,14.80
2023-05-28T00:17:19.521Z,14.73
2023-05-28T00:19:46.056Z,14.66
2023-05-28T00:22:13.307Z,14.58
2023-05-28T00:24:39.887Z,14.47
2023-05-28T00:27:07.176Z,14.36
2023-05-28T00:29:34.105Z,14.48
2023-05-28T00:32:00.691Z,14.46
2023-05-28T00:34:27.559Z,14.56
2023-05-28T00:36:54.749Z,14.57
2023-05-28T00:39:21.657Z,14.55
2023-05-28T00:41:48.310Z,14.57
2023-05-28T00:44:14.880Z,14.54
2023-05-28T00:46:43.204Z,14.49
2023-05-28T00:49:13.244Z,14.47
2023-05-28T00:51:42.020Z,14.45
2023-05-28T00:54:08.895Z,14.38
2023-05-28T00:56:36.184Z,14.37
2023-05-28T00:59:03.021Z,14.34
2023-05-28T01:01:30.746Z,14.32
2023-05-28T01:03:57.474Z,14.23
2023-05-28T01:06:24.304Z,14.18
2023-05-28T01:08:52.320Z,14.04
2023-05-28T01:11:20.215Z,13.80
2023-05-28T01:13:48.312Z,13.69
2023-05-28T01:16:15.085Z,13.59
2023-05-28T01:18:45.740Z,13.62
2023-05-28T01:21:13.675Z,13.54
2023-05-28T01:23:46.964Z,13.40
2023-05-28T01:26:15.517Z,13.33
2023-05-28T01:28:49.445Z,13.25
2023-05-28T01:31:17.530Z,13.21
2023-05-28T01:33:45.319Z,13.10
2023-05-28T01:36:38.278Z,13.16
2023-05-28T01:39:06.244Z,13.23
2023-05-28T01:41:33.151Z,13.18
2023-05-28T01:44:00.662Z,13.19
2023-05-28T01:46:28.071Z,13.11
2023-05-28T01:48:54.842Z,13.05
2023-05-28T01:51:25.011Z,13.06
2023-05-28T01:53:52.012Z,12.89
2023-05-28T01:56:18.580Z,12.96
2023-05-28T01:58:45.152Z,12.96
2023-05-28T02:01:28.909Z,12.77
2023-05-28T02:03:57.204Z,12.71
2023-05-28T02:06:25.518Z,12.66
2023-05-28T02:08:53.426Z,12.64
2023-05-28T02:11:19.913Z,12.59
2023-05-28T02:13:47.634Z,12.67
2023-05-28T02:16:18.688Z,12.62
2023-05-28T02:18:46.199Z,12.56
2023-05-28T02:21:13.551Z,12.40
2023-05-28T02:23:45.398Z,12.36
2023-05-28T02:26:12.254Z,12.35
2023-05-28T02:28:39.086Z,12.43
2023-05-28T02:31:05.845Z,12.37
2023-05-28T02:33:34.229Z,12.30
2023-05-28T02:36:00.899Z,12.27
2023-05-28T02:38:27.431Z,12.27
2023-05-28T02:40:54.014Z,12.27
2023-05-28T02:43:20.858Z,12.23
2023-05-28T02:45:47.343Z,12.18
2023-05-28T02:48:13.884Z,11.98
2023-05-28T02:50:40.385Z,12.05
2023-05-28T02:53:06.848Z,12.13
2023-05-28T02:55:33.319Z,12.22
2023-05-28T02:58:00.153Z,12.30
2023-05-28T03:00:26.644Z,12.29
2023-05-28T03:02:53.303Z,12.16
2023-05-28T03:05:20.055Z,12.06
2023-05-28T03:07:46.612Z,12.10
2023-05-28T03:10:13.186Z,12.15
2023-05-28T03:12:39.678Z,12.01
2023-05-28T03:15:06.763Z,11.92
2023-05-28T03:17:33.259Z,11.83
2023-05-28T03:19:59.743Z,11.86
2023-05-28T03:22:26.318Z,11.88
2023-05-28T03:24:52.825Z,11.73
2023-05-28T03:27:19.324Z,11.76
2023-05-28T03:29:45.941Z,11.63
2023-05-28T03:32:12.482Z,11.65
2023-05-28T03:34:38.949Z,11.64
2023-05-28T03:37:05.425Z,11.52
2023-05-28T03:39:31.911Z,11.46
2023-05-28T03:41:58.389Z,11.44
2023-05-28T03:44:24.890Z,11.43
2023-05-28T03:46:51.411Z,11.49
2023-05-28T03:49:17.907Z,11.56
2023-05-28T03:51:44.432Z,11.58
2023-05-28T03:54:10.952Z,11.65
2023-05-28T03:56:37.445Z,11.58
2023-05-28T03:59:03.987Z,11.44
2023-05-28T04:01:30.941Z,11.42
2023-05-28T04:03:57.674Z,11.45
2023-05-28T04:06:24.990Z,11.54
2023-05-28T04:08:51.549Z,11.41
2023-05-28T04:11:18.004Z,11.39
2023-05-28T04:13:44.507Z,11.32
2023-05-28T04:16:11.031Z,11.20
2023-05-28T04:18:37.606Z,11.22
2023-05-28T04:21:04.217Z,11.24
2023-05-28T04:23:31.199Z,11.26
2023-05-28T04:25:57.742Z,11.37
2023-05-28T04:28:29.038Z,11.54
2023-05-28T04:30:56.261Z,11.68
2023-05-28T04:33:22.786Z,11.82
2023-05-28T04:35:49.305Z,11.92
2023-05-28T04:38:16.450Z,11.90
2023-05-28T04:40:42.977Z,11.96
2023-05-28T04:43:10.002Z,11.98
2023-05-28T04:45:36.736Z,12.03
2023-05-28T04:48:03.324Z,11.88
2023-05-28T04:50:29.829Z,11.80
2023-05-28T04:52:56.361Z,11.78
2023-05-28T04:55:23.517Z,11.80
2023-05-28T04:57:50.031Z,11.87
2023-05-28T05:00:16.935Z,11.86
2023-05-28T05:02:43.558Z,11.88
2023-05-28T05:05:10.223Z,11.96
2023-05-28T05:07:40.029Z,12.08
2023-05-28T05:10:10.708Z,12.10
2023-05-28T05:12:38.195Z,12.08
2023-05-28T05:15:06.806Z,12.15
2023-05-28T05:17:33.415Z,12.23
2023-05-28T05:20:04.383Z,12.35
2023-05-28T05:22:31.775Z,12.44
2023-05-28T05:24:58.496Z,12.53
2023-05-28T05:27:25.056Z,12.63
2023-05-28T05:29:51.588Z,12.77
2023-05-28T05:32:18.138Z,12.88
2023-05-28T05:34:45.022Z,12.96
2023-05-28T05:37:11.602Z,13.02
2023-05-28T05:39:38.085Z,13.04
2023-05-28T05:42:04.899Z,13.08
2023-05-28T05:44:31.411Z,13.11
2023-05-28T05:46:57.852Z,13.14
2023-05-28T05:49:24.382Z,13.21
2023-05-28T05:51:50.873Z,13.29
2023-05-28T05:54:17.365Z,13.35
2023-05-28T05:56:44.437Z,13.42
2023-05-28T05:59:11.178Z,13.48
2023-05-28T06:01:37.653Z,13.52
2023-05-28T06:04:04.335Z,13.58
2023-05-28T06:06:30.883Z,13.63
2023-05-28T06:08:58.271Z,13.69
2023-05-28T06:11:24.751Z,13.74
2023-05-28T06:13:52.911Z,13.78
2023-05-28T06:16:19.397Z,13.81
2023-05-28T06:18:45.927Z,13.86
2023-05-28T06:21:12.451Z,13.90
2023-05-28T06:23:39.023Z,13.95
2023-05-28T06:26:06.111Z,14.01
2023-05-28T06:28:32.784Z,14.06
2023-05-28T06:31:00.088Z,14.11
2023-05-28T06:33:26.693Z,14.17
2023-05-28T06:35:53.469Z,14.22
2023-05-28T06:38:20.220Z,14.27
2023-05-28T06:40:46.642Z,14.34
2023-05-28T06:43:13.150Z,14.40
2023-05-28T06:45:40.073Z,14.44
2023-05-28T06:48:07.076Z,14.50
2023-05-28T06:50:33.728Z,14.55
2023-05-28T06:53:00.312Z,14.63
2023-05-28T06:55:26.896Z,14.68
2023-05-28T06:57:53.381Z,14.75
2023-05-28T07:00:22.205Z,14.91
2023-05-28T07:02:48.793Z,14.99
2023-05-28T07:05:15.952Z,15.12
2023-05-28T07:07:42.605Z,15.24
2023-05-28T07:10:09.951Z,15.34
2023-05-28T07:12:36.747Z,15.45
2023-05-28T07:15:04.782Z,15.43
2023-05-28T07:17:31.393Z,15.68
2023-05-28T07:19:57.962Z,15.74
2023-05-28T07:22:25.363Z,15.91
2023-05-28T07:24:51.874Z,16.00
2023-05-28T07:27:18.393Z,16.20
2023-05-28T07:29:44.980Z,16.50
2023-05-28T07:32:11.630Z,16.39
2023-05-28T07:34:40.153Z,16.51
2023-05-28T07:37:06.795Z,16.56
2023-05-28T07:39:33.399Z,16.71
2023-05-28T07:41:59.942Z,16.86
2023-05-28T07:44:26.602Z,16.97
2023-05-28T07:46:53.282Z,17.09
2023-05-28T07:49:20.551Z,17.09
2023-05-28T07:51:47.037Z,17.07
2023-05-28T07:54:13.636Z,17.00
2023-05-28T07:56:40.320Z,16.89
2023-05-28T07:59:07.077Z,16.73
2023-05-28T08:01:35.397Z,16.83
2023-05-28T08:04:02.221Z,16.78
2023-05-28T08:06:29.231Z,16.81
2023-05-28T08:08:55.802Z,16.97
2023-05-28T08:11:22.766Z,16.99
2023-05-28T08:13:49.327Z,16.92
2023-05-28T08:16:16.132Z,16.95
2023-05-28T08:18:42.650Z,16.92
2023-05-28T08:21:09.274Z,16.94
2023-05-28T08:23:36.169Z,16.92
2023-05-28T08:26:05.759Z,16.99
2023-05-28T08:28:32.431Z,16.99
2023-05-28T08:30:59.139Z,17.48
2023-05-28T08:33:26.153Z,17.75
2023-05-28T08:35:52.957Z,17.60
2023-05-28T08:38:19.665Z,17.64
2023-05-28T08:40:54.396Z,17.66
2023-05-28T08:43:21.255Z,17.73
2023-05-28T08:45:47.722Z,17.75
2023-05-28T08:48:16.126Z,17.78
2023-05-28T08:50:49.666Z,17.76
2023-05-28T08:53:22.310Z,17.68
2023-05-28T08:55:49.004Z,17.75
2023-05-28T08:58:17.394Z,17.78
2023-05-28T09:00:44.133Z,17.72
2023-05-28T09:03:10.849Z,17.74
2023-05-28T09:05:38.892Z,17.82
2023-05-28T09:08:11.035Z,17.88
2023-05-28T09:10:39.922Z,17.90
2023-05-28T09:13:07.617Z,17.96
2023-05-28T09:15:36.577Z,18.00
2023-05-28T09:18:05.739Z,18.02
2023-05-28T09:20:33.166Z,18.12
2023-05-28T09:23:06.598Z,18.18
2023-05-28T09:25:37.611Z,18.19
2023-05-28T09:28:04.502Z,18.44
2023-05-28T09:30:38.613Z,18.43
2023-05-28T09:33:08.466Z,18.38
2023-05-28T09:35:36.284Z,18.42
2023-05-28T09:38:04.873Z,18.47
2023-05-28T09:40:31.529Z,18.40
2023-05-28T09:42:58.493Z,18.55
2023-05-28T09:45:26.819Z,18.66
2023-05-28T09:47:53.426Z,18.61
2023-05-28T09:50:21.110Z,18.55
2023-05-28T09:52:48.247Z,18.65
2023-05-28T09:55:19.149Z,18.62
2023-05-28T09:57:55.874Z,18.64
2023-05-28T10:00:27.466Z,18.68
2023-05-28T10:02:57.210Z,18.72
2023-05-28T10:05:27.587Z,18.74
2023-05-28T10:07:55.716Z,18.80
2023-05-28T10:10:22.614Z,18.87
2023-05-28T10:12:50.945Z,18.78
2023-05-28T10:15:18.201Z,18.84
2023-05-28T10:17:44.866Z,18.91
2023-05-28T10:20:12.884Z,18.92
2023-05-28T10:22:40.734Z,18.93
2023-05-28T10:25:09.210Z,18.92
2023-05-28T10:27:38.404Z,18.98
2023-05-28T10:30:05.853Z,18.97
2023-05-28T10:32:43.879Z,18.99
2023-05-28T10:35:11.899Z,19.15
2023-05-28T10:37:38.792Z,19.35
2023-05-28T10:40:09.697Z,19.25
2023-05-28T10:42:41.593Z,19.25
2023-05-28T10:45:10.919Z,19.40
2023-05-28T10:47:42.593Z,19.31
2023-05-28T10:50:19.200Z,19.23
2023-05-28T10:53:09.927Z,19.59
2023-05-28T10:55:50.180Z,19.67
2023-05-28T10:58:34.319Z,19.53
2023-05-28T11:01:05.511Z,19.44
2023-05-28T11:04:07.736Z,19.48
2023-05-28T11:06:39.640Z,19.51
2023-05-28T11:09:06.296Z,19.47
2023-05-28T11:11:32.921Z,19.43
2023-05-28T11:14:02.089Z,19.69
2023-05-28T11:16:32.615Z,19.72
2023-05-28T11:19:09.981Z,19.77
2023-05-28T11:21:53.912Z,19.91
2023-05-28T11:24:20.623Z,19.88
2023-05-28T11:26:47.260Z,19.64
2023-05-28T11:29:16.189Z,19.79
2023-05-28T11:31:43.203Z,19.97
2023-05-28T11:34:10.071Z,20.21
2023-05-28T11:36:44.651Z,20.19
2023-05-28T11:39:11.784Z,20.18
2023-05-28T11:41:38.895Z,20.33
2023-05-28T11:44:22.697Z,20.23
2023-05-28T11:46:56.923Z,20.52
2023-05-28T11:49:23.814Z,20.59
2023-05-28T11:51:54.473Z,20.79
2023-05-28T11:54:23.020Z,21.03
2023-05-28T11:56:51.370Z,21.42
2023-05-28T11:59:18.605Z,21.92
2023-05-28T12:01:45.792Z,22.38
2023-05-28T12:04:12.443Z,22.70
2023-05-28T12:06:55.638Z,22.98
2023-05-28T12:09:22.964Z,23.30
2023-05-28T12:12:05.401Z,23.62
2023-05-28T12:14:34.720Z,23.79
2023-05-28T12:17:13.506Z,23.84
2023-05-28T12:19:40.109Z,24.20
2023-05-28T12:22:15.730Z,24.47
2023-05-28T12:24:49.988Z,24.75
2023-05-28T12:27:16.569Z,24.83
2023-05-28T12:29:43.052Z,24.92
2023-05-28T12:32:09.800Z,24.95
2023-05-28T12:34:36.493Z,24.50
2023-05-28T12:37:03.699Z,24.61
2023-05-28T12:39:30.226Z,24.78
2023-05-28T12:41:56.798Z,25.25
2023-05-28T12:44:23.293Z,25.22
2023-05-28T12:46:51.356Z,25.55
2023-05-28T12:49:17.818Z,25.70
2023-05-28T12:51:44.342Z,25.64
2023-05-28T12:54:10.927Z,26.00
2023-05-28T12:56:37.419Z,26.18
2023-05-28T12:59:03.905Z,26.30
2023-05-28T13:01:30.844Z,26.24
2023-05-28T13:03:57.508Z,26.10
2023-05-28T13:06:24.286Z,26.02
2023-05-28T13:08:51.467Z,25.71
2023-05-28T13:11:18.489Z,25.59
2023-05-28T13:13:45.306Z,25.45
2023-05-28T13:16:13.442Z,25.50
2023-05-28T13:18:41.798Z,25.63
2023-05-28T13:21:08.348Z,25.80
2023-05-28T13:23:34.876Z,25.77
2023-05-28T13:26:01.443Z,25.79
2023-05-28T13:28:28.021Z,25.89
2023-05-28T13:30:54.877Z,25.76
2023-05-28T13:33:21.521Z,25.99
2023-05-28T13:35:48.024Z,25.82
2023-05-28T13:38:14.871Z,25.71
2023-05-28T13:40:41.441Z,25.87
2023-05-28T13:43:08.541Z,25.98
2023-05-28T13:45:35.115Z,26.26
2023-05-28T13:48:03.440Z,26.26
2023-05-28T13:50:30.025Z,26.36
2023-05-28T13:52:58.215Z,25.87
2023-05-28T13:55:24.704Z,25.16
2023-05-28T13:57:51.209Z,25.29
2023-05-28T14:00:30.228Z,25.32
2023-05-28T14:03:04.347Z,25.37
2023-05-28T14:05:30.891Z,25.26
2023-05-28T14:07:57.444Z,25.42
2023-05-28T14:10:23.963Z,25.39
2023-05-28T14:12:53.694Z,25.30
2023-05-28T14:15:20.269Z,25.23
2023-05-28T14:17:46.850Z,25.23
2023-05-28T14:20:13.907Z,25.28
2023-05-28T14:22:40.752Z,24.97
2023-05-28T14:25:07.573Z,24.80
2023-05-28T14:27:34.120Z,25.00
2023-05-28T14:30:00.932Z,25.09
2023-05-28T14:32:27.601Z,24.93
2023-05-28T14:34:54.237Z,24.98
2023-05-28T14:37:20.800Z,24.75
2023-05-28T14:39:47.405Z,24.69
2023-05-28T14:42:13.958Z,24.59
2023-05-28T14:44:40.785Z,24.66
2023-05-28T14:47:07.705Z,24.65
2023-05-28T14:49:34.790Z,24.69
2023-05-28T14:52:25.190Z,24.65
2023-05-28T14:54:55.875Z,24.64
2023-05-28T14:57:23.386Z,24.58
2023-05-28T14:59:50.905Z,24.59
2023-05-28T15:02:17.729Z,24.45
2023-05-28T15:04:45.496Z,24.31
2023-05-28T15:07:13.209Z,24.09
2023-05-28T15:09:40.669Z,24.11
2023-05-28T15:12:07.670Z,24.21
2023-05-28T15:14:35.230Z,24.27
2023-05-28T15:17:02.147Z,24.25
2023-05-28T15:19:28.982Z,24.21
2023-05-28T15:21:58.799Z,24.23
2023-05-28T15:24:25.821Z,24.21
2023-05-28T15:26:52.606Z,24.19
2023-05-28T15:29:19.562Z,24.20
2023-05-28T15:31:47.957Z,24.08
2023-05-28T15:34:15.951Z,24.02
2023-05-28T15:36:43.182Z,23.97
2023-05-28T15:39:11.873Z,24.01
2023-05-28T15:41:42.459Z,24.05
2023-05-28T15:44:09.675Z,24.08
2023-05-28T15:46:36.749Z,24.09
2023-05-28T15:49:03.780Z,24.01
2023-05-28T15:51:33.111Z,23.95
2023-05-28T15:53:59.881Z,23.97
2023-05-28T15:56:30.193Z,23.93
2023-05-28T15:58:58.075Z,24.01
2023-05-28T16:01:25.602Z,24.01
2023-05-28T16:03:52.451Z,24.09
2023-05-28T16:06:19.163Z,24.10
2023-05-28T16:08:45.805Z,24.12
2023-05-28T16:11:16.281Z,24.11
2023-05-28T16:13:43.098Z,23.90
2023-05-28T16:16:14.719Z,23.81
2023-05-28T16:18:46.030Z,23.80
2023-05-28T16:21:12.698Z,23.68
2023-05-28T16:23:39.149Z,23.75
2023-05-28T16:26:06.066Z,23.75
2023-05-28T16:28:36.441Z,23.70
2023-05-28T16:31:05.615Z,23.62
2023-05-28T16:33:32.277Z,23.68
2023-05-28T16:35:59.668Z,23.65
2023-05-28T16:38:27.717Z,23.66
2023-05-28T16:40:54.477Z,23.64
2023-05-28T16:43:21.615Z,23.44
2023-05-28T16:45:48.500Z,23.33
2023-05-28T16:48:15.307Z,23.36
2023-05-28T16:50:42.039Z,23.44
2023-05-28T16:53:12.294Z,23.39
2023-05-28T16:55:42.077Z,23.52
2023-05-28T16:58:08.600Z,23.57
2023-05-28T17:00:35.060Z,23.54
2023-05-28T17:03:01.697Z,23.58
2023-05-28T17:05:28.272Z,23.58
2023-05-28T17:07:54.814Z,23.55
2023-05-28T17:10:21.532Z,23.60
2023-05-28T17:12:48.125Z,23.66
2023-05-28T17:15:15.982Z,23.69
2023-05-28T17:17:42.592Z,23.64
2023-05-28T17:20:10.389Z,23.65
2023-05-28T17:22:39.464Z,23.62
2023-05-28T17:25:06.528Z,23.62
2023-05-28T17:27:33.405Z,23.56
2023-05-28T17:29:59.856Z,23.35
2023-05-28T17:32:26.831Z,23.25
2023-05-28T17:34:54.377Z,23.22
2023-05-28T17:37:21.797Z,23.09
2023-05-28T17:39:48.336Z,23.04
2023-05-28T17:42:14.883Z,23.07
2023-05-28T17:44:41.419Z,23.09
2023-05-28T17:47:08.037Z,23.00
2023-05-28T17:49:34.569Z,23.01
2023-05-28T17:52:01.162Z,23.07
2023-05-28T17:54:27.664Z,23.01
2023-05-28T17:56:54.145Z,22.96
2023-05-28T17:59:20.869Z,22.91
2023-05-28T18:01:47.413Z,22.90
2023-05-28T18:04:14.179Z,22.95
2023-05-28T18:06:40.703Z,22.95
2023-05-28T18:09:07.212Z,22.89
2023-05-28T18:11:33.820Z,22.82
2023-05-28T18:14:00.417Z,22.79
2023-05-28T18:16:27.089Z,22.71
2023-05-28T18:18:55.690Z,22.70
2023-05-28T18:21:26.568Z,22.65
2023-05-28T18:23:53.196Z,22.67
2023-05-28T18:26:20.078Z,22.67
2023-05-28T18:28:46.601Z,22.62
2023-05-28T18:31:13.114Z,22.57
2023-05-28T18:33:41.680Z,22.52
2023-05-28T18:36:08.230Z,22.50
2023-05-28T18:38:34.764Z,22.43
2023-05-28T18:41:01.485Z,22.32
2023-05-28T18:43:28.012Z,22.23
2023-05-28T18:45:54.549Z,22.20
2023-05-28T18:48:21.252Z,22.13
2023-05-28T18:50:47.764Z,22.12
2023-05-28T18:53:14.395Z,22.06
2023-05-28T18:55:41.651Z,22.03
2023-05-28T18:58:08.740Z,21.92
2023-05-28T19:00:35.410Z,21.91
2023-05-28T19:03:02.005Z,21.86
2023-05-28T19:05:28.551Z,21.85
2023-05-28T19:07:55.017Z,21.80
2023-05-28T19:10:22.503Z,21.75
2023-05-28T19:12:48.985Z,21.67
2023-05-28T19:15:15.817Z,21.64
2023-05-28T19:17:42.497Z,21.53
2023-05-28T19:20:09.593Z,21.50
2023-05-28T19:22:37.678Z,21.43
2023-05-28T19:25:04.779Z,21.39
2023-05-28T19:27:32.358Z,21.35
2023-05-28T19:29:58.904Z,21.31
2023-05-28T19:32:26.269Z,21.26
2023-05-28T19:34:52.859Z,21.24
2023-05-28T19:37:19.556Z,21.21
2023-05-28T19:39:46.238Z,21.11
2023-05-28T19:42:12.820Z,21.08
2023-05-28T19:44:39.380Z,21.09
2023-05-28T19:47:05.969Z,20.98
2023-05-28T19:49:32.567Z,20.94
2023-05-28T19:51:59.265Z,20.82
2023-05-28T19:54:26.307Z,20.76
2023-05-28T19:56:52.962Z,20.74
2023-05-28T19:59:20.869Z,20.69
2023-05-28T20:01:48.220Z,20.65
2023-05-28T20:04:16.291Z,20.62
2023-05-28T20:06:46.136Z,20.45
2023-05-28T20:09:12.647Z,20.41
2023-05-28T20:11:39.408Z,20.31
2023-05-28T20:14:06.772Z,20.27
2023-05-28T20:16:34.399Z,20.25
2023-05-28T20:19:01.104Z,20.21
2023-05-28T20:21:27.743Z,20.20
2023-05-28T20:23:54.255Z,20.26
2023-05-28T20:26:20.813Z,20.23
2023-05-28T20:28:47.298Z,20.14
2023-05-28T20:31:13.805Z,20.10
2023-05-28T20:33:40.382Z,20.05
2023-05-28T20:36:12.802Z,20.08
2023-05-28T20:38:41.507Z,20.04
2023-05-28T20:41:11.175Z,19.94
2023-05-28T20:43:38.141Z,19.93
2023-05-28T20:46:04.679Z,19.77
2023-05-28T20:48:31.646Z,19.80
2023-05-28T20:50:58.183Z,19.80
2023-05-28T20:53:24.694Z,19.75
2023-05-28T20:55:51.144Z,19.72
2023-05-28T20:58:29.643Z,19.61
2023-05-28T21:01:00.335Z,19.56
2023-05-28T21:03:26.940Z,19.51
2023-05-28T21:05:53.498Z,19.38
2023-05-28T21:08:19.992Z,19.20
2023-05-28T21:10:46.856Z,19.12
2023-05-28T21:13:14.417Z,19.13
2023-05-28T21:15:40.958Z,19.18
2023-05-28T21:18:07.559Z,19.23
2023-05-28T21:20:34.225Z,19.28
2023-05-28T21:23:00.740Z,19.22
2023-05-28T21:25:27.333Z,19.14
2023-05-28T21:27:55.385Z,19.05
2023-05-28T21:30:22.070Z,18.91
2023-05-28T21:32:48.635Z,18.85
2023-05-28T21:35:15.276Z,18.90
2023-05-28T21:37:42.015Z,18.82
2023-05-28T21:40:08.988Z,18.72
2023-05-28T21:42:35.680Z,18.66
2023-05-28T21:45:02.192Z,18.64
2023-05-28T21:47:28.765Z,18.62
2023-05-28T21:49:55.333Z,18.59
2023-05-28T21:52:25.950Z,18.61
2023-05-28T21:54:54.666Z,18.51
2023-05-28T21:57:21.956Z,18.47
2023-05-28T21:59:48.470Z,18.43
2023-05-28T22:02:14.950Z,18.27
2023-05-28T22:04:43.147Z,18.25
2023-05-28T22:07:09.653Z,18.26
2023-05-28T22:09:36.189Z,18.28
2023-05-28T22:12:02.838Z,18.24
2023-05-28T22:14:29.328Z,18.12
2023-05-28T22:16:55.925Z,18.11
2023-05-28T22:19:23.651Z,18.09
2023-05-28T22:21:50.177Z,18.02
2023-05-28T22:24:16.714Z,17.94
2023-05-28T22:26:43.420Z,17.84
2023-05-28T22:29:10.025Z,17.72
2023-05-28T22:31:36.593Z,17.78
2023-05-28T22:34:03.571Z,17.75
2023-05-28T22:36:30.045Z,17.73
2023-05-28T22:38:56.703Z,17.65
2023-05-28T22:41:23.296Z,17.63
2023-05-28T22:43:49.764Z,17.55
2023-05-28T22:46:16.421Z,17.51
2023-05-28T22:48:43.124Z,17.49
2023-05-28T22:51:09.657Z,17.50
2023-05-28T22:53:36.304Z,17.48
2023-05-28T22:56:03.712Z,17.41
2023-05-28T22:58:30.395Z,17.33
2023-05-28T23:00:57.590Z,17.27
2023-05-28T23:03:24.329Z,17.17
2023-05-28T23:05:51.312Z,17.13
2023-05-28T23:08:17.829Z,17.18
2023-05-28T23:10:44.389Z,17.14
2023-05-28T23:13:10.935Z,17.16
2023-05-28T23:15:37.478Z,17.05
2023-05-28T23:18:04.788Z,16.90
2023-05-28T23:20:31.582Z,16.89
2023-05-28T23:22:58.217Z,16.76
2023-05-28T23:25:25.067Z,16.77
2023-05-28T23:27:51.623Z,16.80
2023-05-28T23:30:18.529Z,16.80
2023-05-28T23:32:45.093Z,16.82
2023-05-28T23:35:11.933Z,16.82
2023-05-28T23:37:38.645Z,16.82
2023-05-28T23:40:06.085Z,16.63
2023-05-28T23:42:32.667Z,16.68
2023-05-28T23:44:59.173Z,16.53
2023-05-28T23:47:25.732Z,16.53
2023-05-28T23:49:52.256Z,16.55
2023-05-28T23:52:18.772Z,16.52
2023-05-28T23:54:45.288Z,16.47
2023-05-28T23:57:11.923Z,16.24
2023-05-28T23:59:38.757Z,16.31
